createdAt,value
2018-09-27T00:00:15.593Z,4.47
2018-09-27T00:02:46.395Z,4.60
2018-09-27T00:05:17.886Z,4.83
2018-09-27T00:07:48.044Z,5.03
2018-09-27T00:10:18.396Z,5.27
2018-09-27T00:12:49.835Z,5.10
2018-09-27T00:15:20.903Z,4.70
2018-09-27T00:17:53.221Z,5.23
2018-09-27T00:20:23.388Z,4.83
2018-09-27T00:22:54.293Z,4.83
2018-09-27T00:25:24.373Z,5.23
2018-09-27T00:27:54.334Z,5.37
2018-09-27T00:30:24.651Z,5.27
2018-09-27T00:32:59.283Z,5.40
2018-09-27T00:35:30.178Z,5.40
2018-09-27T00:38:01.612Z,5.50
2018-09-27T00:40:31.885Z,5.03
2018-09-27T00:43:03.260Z,5.10
2018-09-27T00:45:35.814Z,5.43
2018-09-27T00:48:05.763Z,5.40
2018-09-27T00:50:36.184Z,5.00
2018-09-27T00:53:10.506Z,4.93
2018-09-27T00:55:41.195Z,5.57
2018-09-27T00:58:11.670Z,5.17
2018-09-27T01:00:41.926Z,4.70
2018-09-27T01:03:12.198Z,5.00
2018-09-27T01:05:43.224Z,5.00
2018-09-27T01:08:14.299Z,5.37
2018-09-27T01:10:46.181Z,5.17
2018-09-27T01:13:15.928Z,5.13
2018-09-27T01:15:49.005Z,5.10
2018-09-27T01:18:19.205Z,4.63
2018-09-27T01:20:50.179Z,5.13
2018-09-27T01:23:21.212Z,4.50
2018-09-27T01:25:51.573Z,5.07
2018-09-27T01:28:28.510Z,4.87
2018-09-27T01:31:02.042Z,4.43
2018-09-27T01:33:34.023Z,4.83
2018-09-27T01:36:04.768Z,4.93
2018-09-27T01:38:35.702Z,4.93
2018-09-27T01:41:05.819Z,4.73
2018-09-27T01:43:35.891Z,5.00
2018-09-27T01:46:06.525Z,4.20
2018-09-27T01:48:36.853Z,4.73
2018-09-27T01:51:06.898Z,4.40
2018-09-27T01:53:38.022Z,4.37
2018-09-27T01:56:12.179Z,4.30
2018-09-27T01:58:42.428Z,4.63
2018-09-27T02:01:12.421Z,4.67
2018-09-27T02:03:42.321Z,3.97
2018-09-27T02:06:12.855Z,4.00
2018-09-27T02:08:44.079Z,4.27
2018-09-27T02:11:14.505Z,3.90
2018-09-27T02:13:45.039Z,4.23
2018-09-27T02:16:14.885Z,4.60
2018-09-27T02:18:45.275Z,4.03
2018-09-27T02:21:15.402Z,4.03
2018-09-27T02:23:47.542Z,3.77
2018-09-27T02:26:18.018Z,4.20
2018-09-27T02:28:48.496Z,4.00
2018-09-27T02:31:18.649Z,4.17
2018-09-27T02:33:49.858Z,4.03
2018-09-27T02:36:20.246Z,3.40
2018-09-27T02:38:51.498Z,3.93
2018-09-27T02:41:21.992Z,3.73
2018-09-27T02:43:52.436Z,3.87
2018-09-27T02:46:22.883Z,3.77
2018-09-27T02:48:54.106Z,3.63
2018-09-27T02:51:24.348Z,3.60
2018-09-27T02:53:54.822Z,3.43
2018-09-27T02:56:26.101Z,4.17
2018-09-27T02:58:56.396Z,3.73
2018-09-27T03:01:26.785Z,3.90
2018-09-27T03:03:58.972Z,3.80
2018-09-27T03:06:33.711Z,3.60
2018-09-27T03:09:03.958Z,3.50
2018-09-27T03:11:35.662Z,3.90
2018-09-27T03:14:05.983Z,3.70
2018-09-27T03:16:36.252Z,3.80
2018-09-27T03:19:07.239Z,3.73
2018-09-27T03:21:37.314Z,3.80
2018-09-27T03:24:08.828Z,3.37
2018-09-27T03:26:41.963Z,3.97
2018-09-27T03:29:11.977Z,3.30
2018-09-27T03:31:43.971Z,3.93
2018-09-27T03:36:53.140Z,3.57
2018-09-27T03:39:24.393Z,3.90
2018-09-27T03:41:54.804Z,3.70
2018-09-27T03:44:26.988Z,3.67
2018-09-27T03:46:57.143Z,3.63
2018-09-27T03:49:27.461Z,4.43
2018-09-27T03:51:59.330Z,3.80
2018-09-27T03:54:29.511Z,4.00
2018-09-27T03:57:01.525Z,3.93
2018-09-27T03:59:32.214Z,3.50
2018-09-27T04:02:03.078Z,3.47
2018-09-27T04:04:34.494Z,3.87
2018-09-27T04:07:04.290Z,4.17
2018-09-27T04:09:34.821Z,3.90
2018-09-27T04:12:06.789Z,3.73
2018-09-27T04:14:36.915Z,4.00
2018-09-27T04:17:07.840Z,4.43
2018-09-27T04:19:38.123Z,4.23
2018-09-27T04:22:09.118Z,3.93
2018-09-27T04:24:41.888Z,3.73
2018-09-27T04:27:13.332Z,4.47
2018-09-27T04:29:44.884Z,3.93
2018-09-27T04:32:20.158Z,3.67
2018-09-27T04:34:51.382Z,3.60
2018-09-27T04:37:21.158Z,3.60
2018-09-27T04:39:51.235Z,3.77
2018-09-27T04:42:23.679Z,3.50
2018-09-27T04:44:53.792Z,3.93
2018-09-27T04:47:30.715Z,3.70
2018-09-27T04:50:09.404Z,4.00
2018-09-27T04:52:39.844Z,3.80
2018-09-27T04:55:10.517Z,4.10
2018-09-27T04:57:41.066Z,4.10
2018-09-27T05:00:12.469Z,5.17
2018-09-27T05:02:45.003Z,4.00
2018-09-27T05:05:18.214Z,4.13
2018-09-27T05:07:48.743Z,4.40
2018-09-27T05:10:19.030Z,4.00
2018-09-27T05:12:52.852Z,4.10
2018-09-27T05:15:23.658Z,4.00
2018-09-27T05:17:54.475Z,4.13
2018-09-27T05:20:24.848Z,3.90
2018-09-27T05:22:55.292Z,4.03
2018-09-27T05:25:25.497Z,4.00
2018-09-27T05:27:56.470Z,4.07
2018-09-27T05:30:29.776Z,3.93
2018-09-27T05:33:06.222Z,3.90
2018-09-27T05:35:36.475Z,4.20
2018-09-27T05:38:27.488Z,4.33
2018-09-27T05:40:58.366Z,4.07
2018-09-27T05:43:33.693Z,4.03
2018-09-27T05:46:06.770Z,4.13
2018-09-27T05:48:38.464Z,4.40
2018-09-27T05:51:09.821Z,4.40
2018-09-27T05:53:40.472Z,4.33
2018-09-27T05:56:12.815Z,3.97
2018-09-27T05:58:44.504Z,4.40
2018-09-27T06:01:15.173Z,3.87
2018-09-27T06:03:46.831Z,4.57
2018-09-27T06:06:17.493Z,4.47
2018-09-27T06:08:50.348Z,4.53
2018-09-27T06:11:21.213Z,4.70
2018-09-27T06:13:51.970Z,5.07
2018-09-27T06:16:22.700Z,4.97
2018-09-27T06:18:56.713Z,4.63
2018-09-27T06:21:28.118Z,4.97
2018-09-27T06:23:58.937Z,4.80
2018-09-27T06:26:31.433Z,5.23
2018-09-27T06:29:01.435Z,4.87
2018-09-27T06:31:32.622Z,4.90
2018-09-27T06:34:04.684Z,5.07
2018-09-27T06:36:35.090Z,4.67
2018-09-27T06:39:07.398Z,4.27
2018-09-27T06:41:38.221Z,4.47
2018-09-27T06:44:08.771Z,4.63
2018-09-27T06:46:38.833Z,4.47
2018-09-27T06:49:09.357Z,4.77
2018-09-27T06:51:39.866Z,4.70
2018-09-27T06:54:10.679Z,4.33
2018-09-27T06:56:41.112Z,4.50
2018-09-27T06:59:11.465Z,4.70
2018-09-27T07:01:42.748Z,5.00
2018-09-27T07:04:13.299Z,4.97
2018-09-27T07:06:43.676Z,4.17
2018-09-27T07:09:16.499Z,4.30
2018-09-27T07:11:47.782Z,4.60
2018-09-27T07:14:19.689Z,5.17
2018-09-27T07:16:56.865Z,4.57
2018-09-27T07:19:27.414Z,4.20
2018-09-27T07:22:00.385Z,4.63
2018-09-27T07:24:30.310Z,4.77
2018-09-27T07:27:01.757Z,4.57
2018-09-27T07:29:33.590Z,5.50
2018-09-27T07:32:06.329Z,5.23
2018-09-27T07:34:38.063Z,4.63
2018-09-27T07:37:20.494Z,4.30
2018-09-27T07:40:29.895Z,4.67
2018-09-27T07:43:02.211Z,4.43
2018-09-27T07:45:33.696Z,5.00
2018-09-27T07:48:05.247Z,4.80
2018-09-27T07:50:35.093Z,4.90
2018-09-27T07:53:07.357Z,5.20
2018-09-27T07:55:38.068Z,5.17
2018-09-27T07:58:08.764Z,5.07
2018-09-27T08:00:40.253Z,5.10
2018-09-27T08:03:10.971Z,5.13
2018-09-27T08:05:46.244Z,5.00
2018-09-27T08:08:16.536Z,5.03
2018-09-27T08:10:48.502Z,4.87
2018-09-27T08:13:19.207Z,4.77
2018-09-27T08:15:54.327Z,5.20
2018-09-27T08:18:27.942Z,4.57
2018-09-27T08:20:59.224Z,5.10
2018-09-27T08:23:29.243Z,5.80
2018-09-27T08:26:02.399Z,5.17
2018-09-27T08:28:36.511Z,5.40
2018-09-27T08:31:07.225Z,5.43
2018-09-27T08:33:37.154Z,5.63
2018-09-27T08:36:09.011Z,5.93
2018-09-27T08:38:40.370Z,5.17
2018-09-27T08:41:10.431Z,5.20
2018-09-27T08:43:40.761Z,4.37
2018-09-27T08:46:10.833Z,5.13
2018-09-27T08:48:41.738Z,5.23
2018-09-27T08:51:11.752Z,4.77
2018-09-27T08:53:43.008Z,4.90
2018-09-27T08:56:13.948Z,4.83
2018-09-27T08:58:43.755Z,5.07
2018-09-27T09:01:13.996Z,5.27
2018-09-27T09:03:46.208Z,5.10
2018-09-27T09:06:17.366Z,5.90
2018-09-27T09:08:50.916Z,6.00
2018-09-27T09:11:25.921Z,5.47
2018-09-27T09:13:58.071Z,4.53
2018-09-27T09:16:30.988Z,4.67
2018-09-27T09:19:01.267Z,5.50
2018-09-27T09:21:36.085Z,5.17
2018-09-27T09:24:06.969Z,5.30
2018-09-27T09:26:38.213Z,5.67
2018-09-27T09:29:12.425Z,6.73
2018-09-27T09:31:49.401Z,6.33
2018-09-27T09:34:19.717Z,5.90
2018-09-27T09:36:51.228Z,5.83
2018-09-27T09:39:22.173Z,7.03
2018-09-27T09:41:53.339Z,5.73
2018-09-27T09:44:24.936Z,5.60
2018-09-27T09:46:55.907Z,5.37
2018-09-27T09:49:36.812Z,6.13
2018-09-27T09:52:08.971Z,5.97
2018-09-27T09:54:42.028Z,5.60
2018-09-27T09:57:13.369Z,4.83
2018-09-27T09:59:47.381Z,6.97
2018-09-27T10:02:18.989Z,6.00
2018-09-27T10:04:49.762Z,5.37
2018-09-27T10:07:20.212Z,4.93
2018-09-27T10:09:50.601Z,5.73
2018-09-27T10:12:21.184Z,4.80
2018-09-27T10:14:52.348Z,4.03
2018-09-27T10:17:24.979Z,4.57
2018-09-27T10:19:55.317Z,5.53
2018-09-27T10:22:27.536Z,4.90
2018-09-27T10:24:58.972Z,5.70
2018-09-27T10:27:29.690Z,5.47
2018-09-27T10:30:02.940Z,4.57
2018-09-27T10:32:35.309Z,5.87
2018-09-27T10:35:05.330Z,4.57
2018-09-27T10:37:36.164Z,5.33
2018-09-27T10:40:07.976Z,4.13
2018-09-27T10:42:38.925Z,4.67
2018-09-27T10:45:09.395Z,4.33
2018-09-27T10:47:40.711Z,5.13
2018-09-27T10:50:11.087Z,4.57
2018-09-27T10:52:43.209Z,4.33
2018-09-27T10:55:13.562Z,3.80
2018-09-27T10:57:44.348Z,3.67
2018-09-27T11:00:18.502Z,3.50
2018-09-27T11:02:48.877Z,3.33
2018-09-27T11:05:21.370Z,3.23
2018-09-27T11:07:56.517Z,3.97
2018-09-27T11:10:28.155Z,3.53
2018-09-27T11:12:58.629Z,3.10
2018-09-27T11:15:29.978Z,3.10
2018-09-27T11:18:00.176Z,4.13
2018-09-27T11:20:30.709Z,3.80
2018-09-27T11:23:01.680Z,3.40
2018-09-27T11:25:35.651Z,3.10
2018-09-27T11:28:05.921Z,2.77
2018-09-27T11:30:37.003Z,2.97
2018-09-27T11:33:07.705Z,3.00
2018-09-27T11:35:38.387Z,3.10
2018-09-27T11:38:10.418Z,3.10
2018-09-27T11:40:40.790Z,3.13
2018-09-27T11:43:13.000Z,3.13
2018-09-27T11:45:45.941Z,2.73
2018-09-27T11:48:17.846Z,2.30
2018-09-27T11:50:59.149Z,2.87
2018-09-27T11:53:36.268Z,3.00
2018-09-27T11:56:07.674Z,3.00
2018-09-27T11:58:39.299Z,2.97
2018-09-27T12:01:09.777Z,3.13
2018-09-27T12:03:47.416Z,2.80
2018-09-27T12:06:25.754Z,2.63
2018-09-27T12:08:57.319Z,2.90
2018-09-27T12:11:28.845Z,3.00
2018-09-27T12:14:10.847Z,2.67
2018-09-27T12:16:42.210Z,2.90
2018-09-27T12:19:13.027Z,2.53
2018-09-27T12:21:43.869Z,2.27
2018-09-27T12:24:16.016Z,2.87
2018-09-27T12:26:48.406Z,2.40
2018-09-27T12:29:18.918Z,3.53
2018-09-27T12:31:49.763Z,2.80
2018-09-27T12:34:19.784Z,2.40
2018-09-27T12:36:51.910Z,2.97
2018-09-27T12:39:23.389Z,2.87
2018-09-27T12:41:55.466Z,2.20
2018-09-27T12:44:29.889Z,2.37
2018-09-27T12:47:07.599Z,2.77
2018-09-27T12:49:44.987Z,2.40
2018-09-27T12:52:15.129Z,3.40
2018-09-27T12:54:51.458Z,2.90
2018-09-27T12:57:21.309Z,2.60
2018-09-27T12:59:52.916Z,3.00
2018-09-27T13:02:24.255Z,2.50
2018-09-27T13:04:54.690Z,2.20
2018-09-27T13:07:26.150Z,1.90
2018-09-27T13:09:56.785Z,2.17
2018-09-27T13:12:26.984Z,2.40
2018-09-27T13:14:58.297Z,2.37
2018-09-27T13:17:31.054Z,2.63
2018-09-27T13:20:02.173Z,2.20
2018-09-27T13:22:33.262Z,2.13
2018-09-27T13:25:03.656Z,2.30
2018-09-27T13:27:35.470Z,2.50
2018-09-27T13:30:06.657Z,2.30
2018-09-27T13:32:39.416Z,2.70
2018-09-27T13:35:10.013Z,2.00
2018-09-27T13:37:39.817Z,2.00
2018-09-27T13:40:11.777Z,2.40
2018-09-27T13:45:21.657Z,2.17
2018-09-27T13:47:52.492Z,2.10
2018-09-27T13:50:23.533Z,2.00
2018-09-27T13:52:53.818Z,1.80
2018-09-27T13:55:24.498Z,1.90
2018-09-27T13:57:55.045Z,1.93
2018-09-27T14:00:25.886Z,1.60
2018-09-27T14:02:56.923Z,2.10
2018-09-27T14:05:32.196Z,1.77
2018-09-27T14:08:03.536Z,1.63
2018-09-27T14:10:36.981Z,1.83
2018-09-27T14:13:07.887Z,1.80
2018-09-27T14:15:42.519Z,1.43
2018-09-27T14:18:17.016Z,1.70
2018-09-27T14:20:48.142Z,1.53
2018-09-27T14:23:18.506Z,1.57
2018-09-27T14:25:52.130Z,1.60
2018-09-27T14:28:27.288Z,1.93
2018-09-27T14:31:05.110Z,1.87
2018-09-27T14:33:35.494Z,1.47
2018-09-27T14:36:06.709Z,1.60
2018-09-27T14:38:37.704Z,2.63
2018-09-27T14:41:23.688Z,2.03
2018-09-27T14:43:53.688Z,1.80
2018-09-27T14:46:24.087Z,1.90
2018-09-27T14:48:55.716Z,1.80
2018-09-27T14:51:27.725Z,1.87
2018-09-27T14:53:59.829Z,2.17
2018-09-27T14:56:30.536Z,1.60
2018-09-27T14:59:02.471Z,1.50
2018-09-27T15:01:40.493Z,1.40
2018-09-27T15:04:13.326Z,1.60
2018-09-27T15:06:43.806Z,1.80
2018-09-27T15:09:14.330Z,1.80
2018-09-27T15:11:44.597Z,1.43
2018-09-27T15:14:15.361Z,1.60
2018-09-27T15:16:47.121Z,1.80
2018-09-27T15:19:19.125Z,1.50
2018-09-27T15:21:49.403Z,2.17
2018-09-27T15:24:19.976Z,1.90
2018-09-27T15:26:51.456Z,1.90
2018-09-27T15:29:22.381Z,1.60
2018-09-27T15:31:53.471Z,1.73
2018-09-27T15:34:26.564Z,1.43
2018-09-27T15:37:01.963Z,1.57
2018-09-27T15:39:32.009Z,1.90
2018-09-27T15:42:03.561Z,1.83
2018-09-27T15:44:44.118Z,2.00
2018-09-27T15:47:14.519Z,2.00
2018-09-27T15:49:45.126Z,2.00
2018-09-27T15:52:15.783Z,1.83
2018-09-27T15:54:46.776Z,1.87
2018-09-27T15:57:18.408Z,2.00
2018-09-27T15:59:50.097Z,1.37
2018-09-27T16:02:21.914Z,1.63
2018-09-27T16:04:52.947Z,1.70
2018-09-27T16:07:28.140Z,1.70
2018-09-27T16:10:04.478Z,1.90
2018-09-27T16:12:34.667Z,2.00
2018-09-27T16:15:05.509Z,1.87
2018-09-27T16:17:39.155Z,2.17
2018-09-27T16:20:10.539Z,1.80
2018-09-27T16:22:42.275Z,1.80
2018-09-27T16:25:14.608Z,2.40
2018-09-27T16:27:46.297Z,1.80
2018-09-27T16:30:17.138Z,2.00
2018-09-27T16:32:48.369Z,2.37
2018-09-27T16:35:23.591Z,2.10
2018-09-27T16:37:54.532Z,1.80
2018-09-27T16:40:26.934Z,2.37
2018-09-27T16:42:57.261Z,1.87
2018-09-27T16:45:34.492Z,2.20
2018-09-27T16:48:10.771Z,2.50
2018-09-27T16:50:41.383Z,2.50
2018-09-27T16:53:12.249Z,2.33
2018-09-27T16:55:42.645Z,2.40
2018-09-27T16:58:14.096Z,2.23
2018-09-27T17:00:45.629Z,2.33
2018-09-27T17:03:22.273Z,2.20
2018-09-27T17:05:52.721Z,2.50
2018-09-27T17:08:30.286Z,2.50
2018-09-27T17:11:03.314Z,2.50
2018-09-27T17:13:34.406Z,2.53
2018-09-27T17:16:04.658Z,2.50
2018-09-27T17:18:35.726Z,2.50
2018-09-27T17:21:05.945Z,2.37
2018-09-27T17:23:36.613Z,2.57
2018-09-27T17:26:07.042Z,2.57
2018-09-27T17:28:37.294Z,2.27
2018-09-27T17:31:15.203Z,2.50
2018-09-27T17:33:48.640Z,2.93
2018-09-27T17:36:21.628Z,3.07
2018-09-27T17:38:53.082Z,3.43
2018-09-27T17:41:23.660Z,3.20
2018-09-27T17:43:54.087Z,3.93
2018-09-27T17:46:24.485Z,3.00
2018-09-27T17:48:56.332Z,3.00
2018-09-27T17:51:37.650Z,3.40
2018-09-27T17:54:20.316Z,3.20
2018-09-27T17:56:52.197Z,3.50
2018-09-27T17:59:23.521Z,3.43
2018-09-27T18:01:54.032Z,3.90
2018-09-27T18:04:29.992Z,3.60
2018-09-27T18:07:01.098Z,3.03
2018-09-27T18:09:42.487Z,3.60
2018-09-27T18:12:21.956Z,3.50
2018-09-27T18:15:02.758Z,3.23
2018-09-27T18:17:34.232Z,3.07
2018-09-27T18:20:06.782Z,3.20
2018-09-27T18:22:43.818Z,3.37
2018-09-27T18:25:13.965Z,3.90
2018-09-27T18:27:45.913Z,3.80
2018-09-27T18:30:16.665Z,3.30
2018-09-27T18:32:48.126Z,3.53
2018-09-27T18:35:19.992Z,3.33
2018-09-27T18:37:57.000Z,3.70
2018-09-27T18:40:27.570Z,3.57
2018-09-27T18:42:59.147Z,4.00
2018-09-27T18:45:29.664Z,3.70
2018-09-27T18:48:02.260Z,4.03
2018-09-27T18:50:33.388Z,3.77
2018-09-27T18:53:04.673Z,3.77
2018-09-27T18:55:34.773Z,3.90
2018-09-27T18:58:05.997Z,4.10
2018-09-27T19:00:36.861Z,3.70
2018-09-27T19:03:07.469Z,3.80
2018-09-27T19:05:38.400Z,4.53
2018-09-27T19:08:09.188Z,3.97
2018-09-27T19:10:43.669Z,3.80
2018-09-27T19:15:50.791Z,4.40
2018-09-27T19:18:21.291Z,4.07
2018-09-27T19:20:57.256Z,3.90
2018-09-27T19:23:27.861Z,4.20
2018-09-27T19:25:59.359Z,4.17
2018-09-27T19:28:34.422Z,4.13
2018-09-27T19:31:05.341Z,4.50
2018-09-27T19:33:37.840Z,4.50
2018-09-27T19:36:16.449Z,4.30
2018-09-27T19:38:56.906Z,4.40
2018-09-27T19:41:34.988Z,4.50
2018-09-27T19:44:07.772Z,4.17
2018-09-27T19:46:43.754Z,4.67
2018-09-27T19:51:50.343Z,4.63
2018-09-27T19:54:20.545Z,5.37
2018-09-27T19:56:51.643Z,5.03
2018-09-27T19:59:22.910Z,5.07
2018-09-27T20:01:54.178Z,5.27
2018-09-27T20:04:24.377Z,5.47
2018-09-27T20:06:54.608Z,5.13
2018-09-27T20:09:24.874Z,5.23
2018-09-27T20:11:55.298Z,4.77
2018-09-27T20:14:25.501Z,5.37
2018-09-27T20:16:56.096Z,4.87
2018-09-27T20:22:04.677Z,5.20
2018-09-27T20:24:37.686Z,5.50
2018-09-27T20:27:08.679Z,5.70
2018-09-27T20:29:40.046Z,5.60
2018-09-27T20:32:11.160Z,5.17
2018-09-27T20:34:41.998Z,5.27
2018-09-27T20:37:14.933Z,5.77
2018-09-27T20:39:45.677Z,5.37
2018-09-27T20:42:21.994Z,5.60
2018-09-27T20:44:55.171Z,5.33
2018-09-27T20:47:34.555Z,5.20
2018-09-27T20:50:04.859Z,5.33
2018-09-27T20:52:35.238Z,5.37
2018-09-27T20:55:06.575Z,5.50
2018-09-27T20:57:37.952Z,4.80
2018-09-27T21:00:10.300Z,4.90
2018-09-27T21:02:40.552Z,5.07
2018-09-27T21:05:18.452Z,5.07
2018-09-27T21:07:50.749Z,5.10
2018-09-27T21:10:22.316Z,5.30
2018-09-27T21:12:56.685Z,5.37
2018-09-27T21:15:36.562Z,6.00
2018-09-27T21:18:07.675Z,4.70
2018-09-27T21:20:38.446Z,5.07
2018-09-27T21:23:09.865Z,5.40
2018-09-27T21:25:41.669Z,5.20
2018-09-27T21:28:15.221Z,5.80
2018-09-27T21:30:45.422Z,5.27
2018-09-27T21:33:15.549Z,5.07
2018-09-27T21:35:52.662Z,4.80
2018-09-27T21:38:22.854Z,4.80
2018-09-27T21:40:55.489Z,5.40
2018-09-27T21:43:25.768Z,5.00
2018-09-27T21:45:56.164Z,4.50
2018-09-27T21:48:26.383Z,4.83
2018-09-27T21:50:57.057Z,5.10
2018-09-27T21:53:28.816Z,5.30
2018-09-27T21:56:01.024Z,5.33
2018-09-27T21:58:33.151Z,5.00
2018-09-27T22:01:04.528Z,4.30
2018-09-27T22:03:35.094Z,5.07
2018-09-27T22:06:08.482Z,4.90
2018-09-27T22:08:39.809Z,5.00
2018-09-27T22:11:10.540Z,4.80
2018-09-27T22:13:41.774Z,5.33
2018-09-27T22:16:12.034Z,5.03
2018-09-27T22:18:42.739Z,4.70
2018-09-27T22:21:13.608Z,5.10
2018-09-27T22:23:43.869Z,5.43
2018-09-27T22:26:15.392Z,5.30
2018-09-27T22:28:45.601Z,5.43
2018-09-27T22:31:17.776Z,5.33
2018-09-27T22:33:47.996Z,5.53
2018-09-27T22:36:20.221Z,5.03
2018-09-27T22:38:50.613Z,5.03
2018-09-27T22:41:24.447Z,4.93
2018-09-27T22:43:56.354Z,5.50
2018-09-27T22:46:26.755Z,5.37
2018-09-27T22:48:59.569Z,6.00
2018-09-27T22:51:31.620Z,5.60
2018-09-27T22:54:02.022Z,5.60
2018-09-27T22:56:33.491Z,5.67
2018-09-27T22:59:04.451Z,5.93
2018-09-27T23:01:41.580Z,5.87
2018-09-27T23:04:11.919Z,5.80
2018-09-27T23:06:42.070Z,5.47
2018-09-27T23:09:13.895Z,6.03
2018-09-27T23:11:44.020Z,5.47
2018-09-27T23:14:15.702Z,6.03
2018-09-27T23:16:46.728Z,5.47
2018-09-27T23:19:16.960Z,5.90
2018-09-27T23:21:49.472Z,5.60
2018-09-27T23:24:19.411Z,5.80
2018-09-27T23:26:49.872Z,5.63
2018-09-27T23:29:20.879Z,6.10
2018-09-27T23:31:53.114Z,5.63
2018-09-27T23:34:23.700Z,5.47
2018-09-27T23:36:55.039Z,5.43
2018-09-27T23:39:25.374Z,5.50
2018-09-27T23:41:55.620Z,5.70
2018-09-27T23:44:26.165Z,5.70
2018-09-27T23:46:57.759Z,5.67
2018-09-27T23:49:29.697Z,6.00
2018-09-27T23:52:02.842Z,5.90
2018-09-27T23:54:34.030Z,5.97
2018-09-27T23:57:05.260Z,5.70
2018-09-27T23:59:36.187Z,5.87
